sensor_id;sensor_type;location;lat;lon;timestamp;pressure;altitude;pressure_sealevel;temperature;humidity
77737;BME280;66903;59.926;30.404;2023-07-31T00:02:12;100560.44;;;25.22;50.73
77737;BME280;66903;59.926;30.404;2023-07-31T00:07:13;100554.06;;;25.25;51.10
77737;BME280;66903;59.926;30.404;2023-07-31T00:12:14;100563.72;;;25.43;50.82
77737;BME280;66903;59.926;30.404;2023-07-31T00:17:14;100578.88;;;25.43;50.35
77737;BME280;66903;59.926;30.404;2023-07-31T00:22:15;100586.25;;;25.31;50.72
77737;BME280;66903;59.926;30.404;2023-07-31T00:27:15;100574.28;;;25.15;51.21
77737;BME280;66903;59.926;30.404;2023-07-31T00:32:19;100589.66;;;25.19;51.15
77737;BME280;66903;59.926;30.404;2023-07-31T00:37:19;100584.34;;;25.12;51.24
77737;BME280;66903;59.926;30.404;2023-07-31T00:42:20;100587.31;;;25.07;50.99
77737;BME280;66903;59.926;30.404;2023-07-31T00:47:20;100594.63;;;25.13;51.24
77737;BME280;66903;59.926;30.404;2023-07-31T00:52:21;100596.97;;;25.39;50.89
77737;BME280;66903;59.926;30.404;2023-07-31T00:57:22;100604.06;;;25.55;50.44
77737;BME280;66903;59.926;30.404;2023-07-31T01:02:22;100600.69;;;25.53;50.83
77737;BME280;66903;59.926;30.404;2023-07-31T01:07:52;100599.16;;;25.82;49.86
77737;BME280;66903;59.926;30.404;2023-07-31T01:12:57;100595.97;;;25.97;50.11
77737;BME280;66903;59.926;30.404;2023-07-31T01:17:58;100596.00;;;25.84;50.16
77737;BME280;66903;59.926;30.404;2023-07-31T01:23:22;100594.72;;;25.90;49.82
77737;BME280;66903;59.926;30.404;2023-07-31T01:33:45;100595.44;;;25.95;49.11
77737;BME280;66903;59.926;30.404;2023-07-31T01:38:45;100582.91;;;25.56;50.23
77737;BME280;66903;59.926;30.404;2023-07-31T01:43:46;100582.25;;;25.59;49.96
77737;BME280;66903;59.926;30.404;2023-07-31T01:48:47;100590.41;;;25.52;50.36
77737;BME280;66903;59.926;30.404;2023-07-31T01:53:47;100568.06;;;25.54;50.60
77737;BME280;66903;59.926;30.404;2023-07-31T01:58:48;100587.84;;;25.77;50.26
77737;BME280;66903;59.926;30.404;2023-07-31T02:03:48;100570.66;;;25.91;50.00
77737;BME280;66903;59.926;30.404;2023-07-31T02:08:49;100574.31;;;26.18;49.47
77737;BME280;66903;59.926;30.404;2023-07-31T02:13:49;100577.19;;;26.41;48.83
77737;BME280;66903;59.926;30.404;2023-07-31T02:18:50;100573.06;;;26.11;49.16
77737;BME280;66903;59.926;30.404;2023-07-31T02:23:50;100571.41;;;25.83;49.97
77737;BME280;66903;59.926;30.404;2023-07-31T02:28:51;100580.09;;;25.78;49.97
77737;BME280;66903;59.926;30.404;2023-07-31T02:33:51;100567.84;;;25.64;50.20
77737;BME280;66903;59.926;30.404;2023-07-31T02:38:52;100585.84;;;25.78;50.05
77737;BME280;66903;59.926;30.404;2023-07-31T02:43:52;100577.66;;;25.85;50.10
77737;BME280;66903;59.926;30.404;2023-07-31T02:48:53;100578.56;;;26.07;49.77
77737;BME280;66903;59.926;30.404;2023-07-31T02:53:53;100574.97;;;26.38;49.19
77737;BME280;66903;59.926;30.404;2023-07-31T02:58:54;100566.03;;;26.17;49.07
77737;BME280;66903;59.926;30.404;2023-07-31T03:03:54;100563.09;;;25.95;49.60
77737;BME280;66903;59.926;30.404;2023-07-31T03:08:55;100568.66;;;25.78;49.54
77737;BME280;66903;59.926;30.404;2023-07-31T03:13:56;100564.44;;;25.62;50.13
77737;BME280;66903;59.926;30.404;2023-07-31T03:18:56;100557.50;;;25.54;50.43
77737;BME280;66903;59.926;30.404;2023-07-31T03:23:57;100551.91;;;25.85;49.92
77737;BME280;66903;59.926;30.404;2023-07-31T03:28:57;100564.34;;;26.16;49.72
77737;BME280;66903;59.926;30.404;2023-07-31T03:33:58;100548.91;;;26.48;49.26
77737;BME280;66903;59.926;30.404;2023-07-31T03:38:58;100553.59;;;26.66;48.67
77737;BME280;66903;59.926;30.404;2023-07-31T03:43:59;100552.88;;;26.60;48.85
77737;BME280;66903;59.926;30.404;2023-07-31T03:48:59;100546.69;;;26.67;48.76
77737;BME280;66903;59.926;30.404;2023-07-31T03:54:00;100544.31;;;26.82;48.99
77737;BME280;66903;59.926;30.404;2023-07-31T03:59:01;100550.69;;;26.79;47.91
77737;BME280;66903;59.926;30.404;2023-07-31T04:04:01;100548.00;;;26.61;47.79
77737;BME280;66903;59.926;30.404;2023-07-31T04:09:02;100547.63;;;26.54;48.99
77737;BME280;66903;59.926;30.404;2023-07-31T04:14:03;100534.97;;;26.55;49.02
77737;BME280;66903;59.926;30.404;2023-07-31T04:19:04;100533.28;;;26.76;49.02
77737;BME280;66903;59.926;30.404;2023-07-31T04:24:04;100528.34;;;26.98;48.09
77737;BME280;66903;59.926;30.404;2023-07-31T04:29:05;100532.00;;;27.21;47.65
77737;BME280;66903;59.926;30.404;2023-07-31T04:34:05;100525.16;;;27.39;47.94
77737;BME280;66903;59.926;30.404;2023-07-31T04:39:06;100534.50;;;27.62;47.60
77737;BME280;66903;59.926;30.404;2023-07-31T04:44:06;100535.03;;;27.72;46.88
77737;BME280;66903;59.926;30.404;2023-07-31T04:49:07;100533.03;;;27.81;46.46
77737;BME280;66903;59.926;30.404;2023-07-31T04:54:07;100533.56;;;27.92;45.97
77737;BME280;66903;59.926;30.404;2023-07-31T04:59:08;100519.72;;;27.94;45.54
77737;BME280;66903;59.926;30.404;2023-07-31T05:04:09;100513.47;;;27.92;46.30
77737;BME280;66903;59.926;30.404;2023-07-31T05:09:09;100524.97;;;28.00;45.19
77737;BME280;66903;59.926;30.404;2023-07-31T05:14:10;100517.38;;;28.04;45.56
77737;BME280;66903;59.926;30.404;2023-07-31T05:19:11;100528.53;;;28.06;46.30
77737;BME280;66903;59.926;30.404;2023-07-31T05:24:11;100522.75;;;28.23;45.74
77737;BME280;66903;59.926;30.404;2023-07-31T05:29:12;100520.75;;;28.23;45.18
77737;BME280;66903;59.926;30.404;2023-07-31T05:34:12;100520.59;;;28.03;44.84
77737;BME280;66903;59.926;30.404;2023-07-31T05:39:13;100521.03;;;27.79;45.12
77737;BME280;66903;59.926;30.404;2023-07-31T05:44:13;100515.66;;;27.95;44.67
77737;BME280;66903;59.926;30.404;2023-07-31T05:49:14;100514.50;;;28.21;43.84
77737;BME280;66903;59.926;30.404;2023-07-31T05:54:15;100519.88;;;28.23;44.13
77737;BME280;66903;59.926;30.404;2023-07-31T05:59:16;100520.56;;;28.46;44.29
77737;BME280;66903;59.926;30.404;2023-07-31T06:04:17;100516.84;;;28.54;43.96
77737;BME280;66903;59.926;30.404;2023-07-31T06:09:17;100512.25;;;28.44;42.07
77737;BME280;66903;59.926;30.404;2023-07-31T06:14:18;100518.19;;;28.48;42.97
77737;BME280;66903;59.926;30.404;2023-07-31T06:19:22;100519.03;;;28.57;42.44
77737;BME280;66903;59.926;30.404;2023-07-31T06:24:23;100527.81;;;28.60;42.28
77737;BME280;66903;59.926;30.404;2023-07-31T06:29:23;100516.66;;;28.67;42.09
77737;BME280;66903;59.926;30.404;2023-07-31T06:34:24;100524.94;;;28.77;41.34
77737;BME280;66903;59.926;30.404;2023-07-31T06:39:25;100518.50;;;28.80;41.59
77737;BME280;66903;59.926;30.404;2023-07-31T06:44:25;100521.13;;;28.94;41.71
77737;BME280;66903;59.926;30.404;2023-07-31T06:49:26;100519.28;;;28.98;41.20
77737;BME280;66903;59.926;30.404;2023-07-31T06:54:26;100519.13;;;28.94;40.94
77737;BME280;66903;59.926;30.404;2023-07-31T06:59:27;100507.66;;;28.86;40.73
77737;BME280;66903;59.926;30.404;2023-07-31T07:04:27;100508.00;;;28.84;40.70
77737;BME280;66903;59.926;30.404;2023-07-31T07:09:28;100505.63;;;28.78;40.66
77737;BME280;66903;59.926;30.404;2023-07-31T07:14:28;100510.28;;;28.99;40.05
77737;BME280;66903;59.926;30.404;2023-07-31T07:19:29;100512.44;;;29.19;41.54
77737;BME280;66903;59.926;30.404;2023-07-31T07:24:29;100510.75;;;29.48;42.06
77737;BME280;66903;59.926;30.404;2023-07-31T07:29:30;100521.50;;;29.68;40.56
77737;BME280;66903;59.926;30.404;2023-07-31T07:34:31;100523.31;;;29.72;39.45
77737;BME280;66903;59.926;30.404;2023-07-31T07:39:31;100517.56;;;29.72;39.53
77737;BME280;66903;59.926;30.404;2023-07-31T07:44:32;100524.31;;;29.76;40.10
77737;BME280;66903;59.926;30.404;2023-07-31T07:49:33;100518.78;;;29.71;39.72
77737;BME280;66903;59.926;30.404;2023-07-31T07:54:34;100516.94;;;29.67;39.58
77737;BME280;66903;59.926;30.404;2023-07-31T07:59:35;100520.84;;;29.62;39.00
77737;BME280;66903;59.926;30.404;2023-07-31T08:04:36;100522.56;;;29.55;38.91
77737;BME280;66903;59.926;30.404;2023-07-31T08:09:36;100522.25;;;29.48;40.07
77737;BME280;66903;59.926;30.404;2023-07-31T08:14:37;100523.34;;;29.64;38.95
77737;BME280;66903;59.926;30.404;2023-07-31T08:19:37;100522.19;;;29.65;38.96
77737;BME280;66903;59.926;30.404;2023-07-31T08:24:38;100535.50;;;29.78;40.09
77737;BME280;66903;59.926;30.404;2023-07-31T08:29:38;100524.75;;;30.07;40.46
77737;BME280;66903;59.926;30.404;2023-07-31T08:34:39;100522.41;;;30.30;40.07
77737;BME280;66903;59.926;30.404;2023-07-31T08:39:39;100525.13;;;30.47;39.90
77737;BME280;66903;59.926;30.404;2023-07-31T08:44:41;100535.63;;;30.64;39.97
77737;BME280;66903;59.926;30.404;2023-07-31T08:49:42;100535.69;;;30.76;40.06
77737;BME280;66903;59.926;30.404;2023-07-31T08:54:43;100525.63;;;30.82;40.33
77737;BME280;66903;59.926;30.404;2023-07-31T08:59:45;100529.03;;;30.96;40.14
77737;BME280;66903;59.926;30.404;2023-07-31T09:04:45;100542.63;;;31.07;39.85
77737;BME280;66903;59.926;30.404;2023-07-31T09:09:46;100528.69;;;31.21;39.80
77737;BME280;66903;59.926;30.404;2023-07-31T09:14:47;100530.19;;;31.39;39.89
77737;BME280;66903;59.926;30.404;2023-07-31T09:19:47;100529.94;;;31.57;39.74
77737;BME280;66903;59.926;30.404;2023-07-31T09:24:48;100534.78;;;31.77;39.42
77737;BME280;66903;59.926;30.404;2023-07-31T09:29:58;100520.56;;;31.96;39.42
77737;BME280;66903;59.926;30.404;2023-07-31T09:34:59;100531.81;;;32.13;38.52
77737;BME280;66903;59.926;30.404;2023-07-31T09:39:59;100537.13;;;32.23;37.96
77737;BME280;66903;59.926;30.404;2023-07-31T09:45:09;100530.13;;;32.24;37.88
77737;BME280;66903;59.926;30.404;2023-07-31T09:50:10;100529.41;;;32.15;37.91
77737;BME280;66903;59.926;30.404;2023-07-31T09:55:11;100527.41;;;32.03;37.96
77737;BME280;66903;59.926;30.404;2023-07-31T10:00:13;100523.94;;;31.98;38.40
77737;BME280;66903;59.926;30.404;2023-07-31T10:05:15;100516.47;;;31.97;38.47
77737;BME280;66903;59.926;30.404;2023-07-31T10:10:16;100516.59;;;32.00;38.59
77737;BME280;66903;59.926;30.404;2023-07-31T10:15:18;100522.72;;;32.11;38.84
77737;BME280;66903;59.926;30.404;2023-07-31T10:20:20;100518.44;;;32.20;38.59
77737;BME280;66903;59.926;30.404;2023-07-31T10:25:22;100517.09;;;32.30;38.43
77737;BME280;66903;59.926;30.404;2023-07-31T10:30:29;100514.94;;;32.67;37.71
77737;BME280;66903;59.926;30.404;2023-07-31T10:35:30;100512.50;;;33.43;37.10
77737;BME280;66903;59.926;30.404;2023-07-31T10:40:30;100502.94;;;34.43;35.04
77737;BME280;66903;59.926;30.404;2023-07-31T10:45:35;100526.34;;;35.11;33.88
77737;BME280;66903;59.926;30.404;2023-07-31T10:50:56;100513.63;;;35.19;34.29
77737;BME280;66903;59.926;30.404;2023-07-31T10:56:00;100495.75;;;34.75;35.01
77737;BME280;66903;59.926;30.404;2023-07-31T11:01:03;100508.72;;;34.24;35.07
77737;BME280;66903;59.926;30.404;2023-07-31T11:06:04;100492.56;;;33.88;35.92
77737;BME280;66903;59.926;30.404;2023-07-31T11:11:07;100503.63;;;33.67;34.97
77737;BME280;66903;59.926;30.404;2023-07-31T11:16:09;100496.16;;;33.50;35.70
77737;BME280;66903;59.926;30.404;2023-07-31T11:21:14;100497.72;;;33.32;35.21
77737;BME280;66903;59.926;30.404;2023-07-31T11:26:15;100482.41;;;33.01;35.98
77737;BME280;66903;59.926;30.404;2023-07-31T11:31:16;100488.53;;;32.84;35.70
77737;BME280;66903;59.926;30.404;2023-07-31T11:36:18;100481.03;;;32.67;36.06
77737;BME280;66903;59.926;30.404;2023-07-31T11:41:19;100484.75;;;32.52;36.57
77737;BME280;66903;59.926;30.404;2023-07-31T11:46:20;100476.34;;;32.35;36.48
77737;BME280;66903;59.926;30.404;2023-07-31T11:51:21;100468.13;;;32.21;36.33
77737;BME280;66903;59.926;30.404;2023-07-31T11:56:23;100466.84;;;32.07;37.34
77737;BME280;66903;59.926;30.404;2023-07-31T12:01:26;100461.31;;;32.02;37.11
77737;BME280;66903;59.926;30.404;2023-07-31T12:06:37;100459.63;;;32.01;37.40
77737;BME280;66903;59.926;30.404;2023-07-31T12:11:47;100458.22;;;31.95;37.53
77737;BME280;66903;59.926;30.404;2023-07-31T12:16:48;100461.91;;;31.83;37.48
77737;BME280;66903;59.926;30.404;2023-07-31T12:21:53;100454.00;;;31.80;37.19
77737;BME280;66903;59.926;30.404;2023-07-31T12:26:53;100454.63;;;31.74;37.46
77737;BME280;66903;59.926;30.404;2023-07-31T12:31:55;100448.63;;;31.67;37.56
77737;BME280;66903;59.926;30.404;2023-07-31T12:36:55;100445.13;;;31.61;37.55
77737;BME280;66903;59.926;30.404;2023-07-31T12:41:56;100440.44;;;31.57;37.42
77737;BME280;66903;59.926;30.404;2023-07-31T12:46:56;100431.19;;;31.51;37.31
77737;BME280;66903;59.926;30.404;2023-07-31T12:51:57;100438.06;;;31.46;37.21
77737;BME280;66903;59.926;30.404;2023-07-31T12:56:58;100436.75;;;31.44;36.96
77737;BME280;66903;59.926;30.404;2023-07-31T13:01:58;100428.41;;;31.42;36.52
77737;BME280;66903;59.926;30.404;2023-07-31T13:06:59;100433.75;;;31.40;36.34
77737;BME280;66903;59.926;30.404;2023-07-31T13:11:59;100433.63;;;31.37;35.91
77737;BME280;66903;59.926;30.404;2023-07-31T13:17:00;100426.00;;;31.32;35.48
77737;BME280;66903;59.926;30.404;2023-07-31T13:22:01;100425.41;;;31.27;35.16
77737;BME280;66903;59.926;30.404;2023-07-31T13:27:01;100419.50;;;31.23;35.08
77737;BME280;66903;59.926;30.404;2023-07-31T13:32:02;100442.84;;;31.18;35.20
77737;BME280;66903;59.926;30.404;2023-07-31T13:37:03;100445.00;;;30.97;36.07
77737;BME280;66903;59.926;30.404;2023-07-31T13:42:04;100473.97;;;30.89;36.76
77737;BME280;66903;59.926;30.404;2023-07-31T13:47:09;100477.69;;;30.57;37.84
77737;BME280;66903;59.926;30.404;2023-07-31T13:52:09;100459.00;;;30.09;39.28
77737;BME280;66903;59.926;30.404;2023-07-31T13:57:10;100434.34;;;29.79;40.88
77737;BME280;66903;59.926;30.404;2023-07-31T14:02:10;100424.94;;;29.91;41.93
77737;BME280;66903;59.926;30.404;2023-07-31T14:07:11;100427.50;;;30.25;41.50
77737;BME280;66903;59.926;30.404;2023-07-31T14:12:11;100430.97;;;30.51;41.58
77737;BME280;66903;59.926;30.404;2023-07-31T14:17:12;100424.16;;;30.68;41.71
77737;BME280;66903;59.926;30.404;2023-07-31T14:22:13;100426.72;;;30.81;41.54
77737;BME280;66903;59.926;30.404;2023-07-31T14:27:14;100439.84;;;30.91;42.40
77737;BME280;66903;59.926;30.404;2023-07-31T14:32:15;100443.47;;;31.00;42.83
77737;BME280;66903;59.926;30.404;2023-07-31T14:37:15;100438.75;;;31.07;42.41
77737;BME280;66903;59.926;30.404;2023-07-31T14:42:16;100430.22;;;31.11;41.81
77737;BME280;66903;59.926;30.404;2023-07-31T14:47:18;100435.53;;;31.09;41.97
77737;BME280;66903;59.926;30.404;2023-07-31T14:52:19;100437.56;;;31.08;42.09
77737;BME280;66903;59.926;30.404;2023-07-31T14:57:19;100438.28;;;31.05;42.11
77737;BME280;66903;59.926;30.404;2023-07-31T15:02:20;100442.72;;;31.03;41.96
77737;BME280;66903;59.926;30.404;2023-07-31T15:07:20;100435.63;;;31.00;41.87
77737;BME280;66903;59.926;30.404;2023-07-31T15:12:21;100435.97;;;30.99;41.92
77737;BME280;66903;59.926;30.404;2023-07-31T15:17:22;100443.81;;;30.98;41.76
77737;BME280;66903;59.926;30.404;2023-07-31T15:22:22;100449.59;;;30.98;41.76
77737;BME280;66903;59.926;30.404;2023-07-31T15:27:23;100452.94;;;31.00;42.28
77737;BME280;66903;59.926;30.404;2023-07-31T15:32:23;100465.31;;;31.01;42.04
77737;BME280;66903;59.926;30.404;2023-07-31T15:37:24;100495.03;;;31.01;42.20
77737;BME280;66903;59.926;30.404;2023-07-31T15:42:24;100496.22;;;31.00;42.38
77737;BME280;66903;59.926;30.404;2023-07-31T15:47:25;100507.28;;;30.98;42.53
77737;BME280;66903;59.926;30.404;2023-07-31T15:52:25;100537.69;;;30.96;42.45
77737;BME280;66903;59.926;30.404;2023-07-31T15:57:26;100542.28;;;30.76;43.09
77737;BME280;66903;59.926;30.404;2023-07-31T16:02:26;100540.78;;;30.17;44.62
77737;BME280;66903;59.926;30.404;2023-07-31T16:07:27;100547.09;;;29.61;44.75
77737;BME280;66903;59.926;30.404;2023-07-31T16:12:28;100555.94;;;29.56;46.13
77737;BME280;66903;59.926;30.404;2023-07-31T16:17:28;100540.78;;;29.67;46.17
77737;BME280;66903;59.926;30.404;2023-07-31T16:22:29;100536.63;;;29.85;46.05
77737;BME280;66903;59.926;30.404;2023-07-31T16:27:29;100531.16;;;29.92;46.19
77737;BME280;66903;59.926;30.404;2023-07-31T16:32:30;100529.41;;;30.00;46.07
77737;BME280;66903;59.926;30.404;2023-07-31T16:37:31;100534.69;;;29.98;46.23
77737;BME280;66903;59.926;30.404;2023-07-31T16:42:32;100550.47;;;29.92;46.60
77737;BME280;66903;59.926;30.404;2023-07-31T16:47:32;100544.06;;;29.86;46.62
77737;BME280;66903;59.926;30.404;2023-07-31T16:52:33;100544.13;;;29.78;47.07
77737;BME280;66903;59.926;30.404;2023-07-31T16:57:33;100550.59;;;29.75;47.50
77737;BME280;66903;59.926;30.404;2023-07-31T17:02:34;100550.81;;;29.70;47.25
77737;BME280;66903;59.926;30.404;2023-07-31T17:07:34;100548.91;;;29.65;47.53
77737;BME280;66903;59.926;30.404;2023-07-31T17:12:35;100532.69;;;29.61;48.06
77737;BME280;66903;59.926;30.404;2023-07-31T17:17:35;100532.16;;;29.38;48.87
77737;BME280;66903;59.926;30.404;2023-07-31T17:22:36;100530.69;;;29.23;49.38
77737;BME280;66903;59.926;30.404;2023-07-31T17:27:37;100539.94;;;28.91;49.69
77737;BME280;66903;59.926;30.404;2023-07-31T17:32:37;100539.31;;;28.43;50.33
77737;BME280;66903;59.926;30.404;2023-07-31T17:37:38;100525.31;;;27.99;51.18
77737;BME280;66903;59.926;30.404;2023-07-31T17:42:38;100520.34;;;27.65;51.63
77737;BME280;66903;59.926;30.404;2023-07-31T17:47:39;100516.03;;;27.37;52.55
77737;BME280;66903;59.926;30.404;2023-07-31T17:52:39;100527.09;;;27.21;52.95
77737;BME280;66903;59.926;30.404;2023-07-31T17:57:40;100532.38;;;27.28;52.90
77737;BME280;66903;59.926;30.404;2023-07-31T18:02:40;100528.06;;;27.48;52.53
77737;BME280;66903;59.926;30.404;2023-07-31T18:07:41;100526.91;;;27.57;52.69
77737;BME280;66903;59.926;30.404;2023-07-31T18:12:42;100529.78;;;27.66;52.32
77737;BME280;66903;59.926;30.404;2023-07-31T18:17:42;100520.34;;;27.65;51.95
77737;BME280;66903;59.926;30.404;2023-07-31T18:22:43;100533.38;;;27.80;52.05
77737;BME280;66903;59.926;30.404;2023-07-31T18:27:44;100517.69;;;27.86;51.92
77737;BME280;66903;59.926;30.404;2023-07-31T18:32:45;100524.78;;;27.97;51.81
77737;BME280;66903;59.926;30.404;2023-07-31T18:37:45;100531.91;;;28.08;51.94
77737;BME280;66903;59.926;30.404;2023-07-31T18:42:46;100529.03;;;28.08;51.42
77737;BME280;66903;59.926;30.404;2023-07-31T18:47:47;100533.03;;;27.90;51.42
77737;BME280;66903;59.926;30.404;2023-07-31T18:52:47;100528.47;;;27.72;51.83
77737;BME280;66903;59.926;30.404;2023-07-31T18:57:48;100523.38;;;27.69;51.32
77737;BME280;66903;59.926;30.404;2023-07-31T19:02:49;100513.19;;;27.46;52.57
77737;BME280;66903;59.926;30.404;2023-07-31T19:07:50;100507.31;;;27.42;52.21
77737;BME280;66903;59.926;30.404;2023-07-31T19:12:50;100503.63;;;27.59;52.71
77737;BME280;66903;59.926;30.404;2023-07-31T19:17:51;100503.81;;;27.79;52.50
77737;BME280;66903;59.926;30.404;2023-07-31T19:22:52;100506.91;;;28.00;51.49
77737;BME280;66903;59.926;30.404;2023-07-31T19:27:53;100499.81;;;27.97;51.40
77737;BME280;66903;59.926;30.404;2023-07-31T19:32:53;100491.53;;;27.96;51.72
77737;BME280;66903;59.926;30.404;2023-07-31T19:37:54;100492.22;;;27.93;51.51
77737;BME280;66903;59.926;30.404;2023-07-31T19:42:54;100494.38;;;27.87;51.43
77737;BME280;66903;59.926;30.404;2023-07-31T19:47:58;100496.22;;;27.83;51.58
77737;BME280;66903;59.926;30.404;2023-07-31T19:52:58;100492.66;;;27.78;52.25
77737;BME280;66903;59.926;30.404;2023-07-31T19:57:59;100502.06;;;27.53;52.22
77737;BME280;66903;59.926;30.404;2023-07-31T20:03:01;100516.28;;;27.10;53.21
77737;BME280;66903;59.926;30.404;2023-07-31T20:08:02;100517.41;;;27.00;53.49
77737;BME280;66903;59.926;30.404;2023-07-31T20:13:03;100524.53;;;27.11;52.83
77737;BME280;66903;59.926;30.404;2023-07-31T20:18:03;100529.53;;;26.97;53.77
77737;BME280;66903;59.926;30.404;2023-07-31T20:23:04;100519.00;;;26.84;53.40
77737;BME280;66903;59.926;30.404;2023-07-31T20:28:04;100528.66;;;26.88;53.44
77737;BME280;66903;59.926;30.404;2023-07-31T20:33:05;100538.75;;;26.86;53.62
77737;BME280;66903;59.926;30.404;2023-07-31T20:38:06;100527.72;;;27.01;53.57
77737;BME280;66903;59.926;30.404;2023-07-31T20:43:06;100536.16;;;27.06;53.63
77737;BME280;66903;59.926;30.404;2023-07-31T20:48:08;100545.47;;;27.12;53.99
77737;BME280;66903;59.926;30.404;2023-07-31T20:53:08;100546.09;;;27.40;52.80
77737;BME280;66903;59.926;30.404;2023-07-31T20:58:09;100537.88;;;27.55;52.97
77737;BME280;66903;59.926;30.404;2023-07-31T21:03:10;100539.72;;;27.60;52.89
77737;BME280;66903;59.926;30.404;2023-07-31T21:08:11;100527.94;;;27.61;53.05
77737;BME280;66903;59.926;30.404;2023-07-31T21:13:11;100546.09;;;27.40;52.93
77737;BME280;66903;59.926;30.404;2023-07-31T21:18:12;100535.84;;;27.16;53.50
77737;BME280;66903;59.926;30.404;2023-07-31T21:23:15;100533.72;;;26.91;53.82
77737;BME280;66903;59.926;30.404;2023-07-31T21:28:16;100530.91;;;26.69;54.41
77737;BME280;66903;59.926;30.404;2023-07-31T21:33:16;100531.16;;;26.59;54.83
77737;BME280;66903;59.926;30.404;2023-07-31T21:38:17;100532.59;;;26.48;55.22
77737;BME280;66903;59.926;30.404;2023-07-31T21:43:17;100535.41;;;26.40;55.45
77737;BME280;66903;59.926;30.404;2023-07-31T21:48:18;100525.41;;;26.37;55.65
77737;BME280;66903;59.926;30.404;2023-07-31T21:53:18;100530.13;;;26.33;55.34
77737;BME280;66903;59.926;30.404;2023-07-31T21:58:19;100521.78;;;26.23;55.64
77737;BME280;66903;59.926;30.404;2023-07-31T22:03:19;100525.44;;;26.15;55.61
77737;BME280;66903;59.926;30.404;2023-07-31T22:08:20;100526.19;;;26.07;55.72
77737;BME280;66903;59.926;30.404;2023-07-31T22:13:20;100535.53;;;25.99;56.16
77737;BME280;66903;59.926;30.404;2023-07-31T22:18:21;100534.28;;;25.91;56.43
77737;BME280;66903;59.926;30.404;2023-07-31T22:23:21;100534.19;;;25.83;56.67
77737;BME280;66903;59.926;30.404;2023-07-31T22:28:22;100532.44;;;25.73;56.96
77737;BME280;66903;59.926;30.404;2023-07-31T22:33:23;100541.25;;;25.63;57.27
77737;BME280;66903;59.926;30.404;2023-07-31T22:38:23;100540.81;;;25.56;57.40
77737;BME280;66903;59.926;30.404;2023-07-31T22:43:24;100539.25;;;25.50;57.34
77737;BME280;66903;59.926;30.404;2023-07-31T22:48:24;100526.75;;;25.46;57.64
77737;BME280;66903;59.926;30.404;2023-07-31T22:53:25;100519.16;;;25.42;57.51
77737;BME280;66903;59.926;30.404;2023-07-31T22:58:25;100531.22;;;25.39;57.54
77737;BME280;66903;59.926;30.404;2023-07-31T23:03:26;100530.47;;;25.33;57.46
77737;BME280;66903;59.926;30.404;2023-07-31T23:08:27;100539.97;;;25.29;57.54
77737;BME280;66903;59.926;30.404;2023-07-31T23:13:28;100532.69;;;25.23;58.09
77737;BME280;66903;59.926;30.404;2023-07-31T23:18:28;100534.91;;;25.26;57.67
77737;BME280;66903;59.926;30.404;2023-07-31T23:23:29;100538.91;;;25.25;57.55
77737;BME280;66903;59.926;30.404;2023-07-31T23:28:29;100545.81;;;25.24;57.54
77737;BME280;66903;59.926;30.404;2023-07-31T23:33:31;100541.78;;;25.25;57.46
77737;BME280;66903;59.926;30.404;2023-07-31T23:38:31;100541.56;;;25.21;57.49
77737;BME280;66903;59.926;30.404;2023-07-31T23:43:32;100538.50;;;25.17;57.62
77737;BME280;66903;59.926;30.404;2023-07-31T23:48:33;100532.56;;;25.14;57.42
77737;BME280;66903;59.926;30.404;2023-07-31T23:53:34;100546.03;;;25.13;57.68
77737;BME280;66903;59.926;30.404;2023-07-31T23:58:35;100553.44;;;25.14;57.50
